createdAt,value
2022-11-02T00:01:55.961Z,11.44
2022-11-02T00:04:41.201Z,11.48
2022-11-02T00:07:26.846Z,11.49
2022-11-02T00:10:11.756Z,11.62
2022-11-02T00:12:57.201Z,11.60
2022-11-02T00:15:42.304Z,11.57
2022-11-02T00:18:27.395Z,11.66
2022-11-02T00:21:13.252Z,11.71
2022-11-02T00:28:22.713Z,11.78
2022-11-02T00:31:07.757Z,11.80
2022-11-02T00:33:53.101Z,11.80
2022-11-02T00:36:38.424Z,11.82
2022-11-02T00:39:23.306Z,11.84
2022-11-02T00:42:08.355Z,11.88
2022-11-02T00:44:53.667Z,11.90
2022-11-02T00:47:38.648Z,11.93
2022-11-02T00:50:23.482Z,11.97
2022-11-02T00:53:08.441Z,11.95
2022-11-02T00:55:53.669Z,12.00
2022-11-02T00:58:39.322Z,12.02
2022-11-02T01:01:24.591Z,12.04
2022-11-02T01:04:09.826Z,12.09
2022-11-02T01:06:55.346Z,12.08
2022-11-02T01:09:41.055Z,12.09
2022-11-02T01:12:26.426Z,12.09
2022-11-02T01:15:11.363Z,12.06
2022-11-02T01:17:56.770Z,12.08
2022-11-02T01:20:41.967Z,12.15
2022-11-02T01:23:27.119Z,12.15
2022-11-02T01:26:12.206Z,12.17
2022-11-02T01:28:57.341Z,12.16
2022-11-02T01:31:42.607Z,12.14
2022-11-02T01:34:27.710Z,12.14
2022-11-02T01:37:12.856Z,12.04
2022-11-02T01:40:17.810Z,11.93
2022-11-02T01:43:25.111Z,11.80
2022-11-02T01:46:10.872Z,11.74
2022-11-02T01:49:02.334Z,11.69
2022-11-02T01:52:22.616Z,11.69
2022-11-02T01:55:16.405Z,11.69
2022-11-02T01:58:09.867Z,11.65
2022-11-02T02:01:56.812Z,11.70
2022-11-02T02:04:44.011Z,11.72
2022-11-02T02:07:31.304Z,11.72
2022-11-02T02:10:17.187Z,11.68
2022-11-02T02:13:05.655Z,11.73
2022-11-02T02:16:15.649Z,11.83
2022-11-02T02:19:05.203Z,11.86
2022-11-02T02:22:15.969Z,11.92
2022-11-02T02:28:21.683Z,11.94
2022-11-02T02:34:56.298Z,11.89
2022-11-02T02:37:45.930Z,11.84
2022-11-02T02:40:35.958Z,11.87
2022-11-02T02:43:29.173Z,11.94
2022-11-02T02:46:23.599Z,11.99
2022-11-02T02:49:12.616Z,11.98
2022-11-02T02:51:59.914Z,11.99
2022-11-02T02:54:47.152Z,12.04
2022-11-02T02:57:35.266Z,11.90
2022-11-02T03:00:20.537Z,11.90
2022-11-02T03:03:15.885Z,11.82
2022-11-02T03:06:10.099Z,11.87
2022-11-02T03:09:02.475Z,11.90
2022-11-02T03:12:01.718Z,11.92
2022-11-02T03:14:47.087Z,11.90
2022-11-02T03:17:40.324Z,11.86
2022-11-02T03:20:33.491Z,11.96
2022-11-02T03:23:28.764Z,11.98
2022-11-02T03:26:26.175Z,11.95
2022-11-02T03:29:18.676Z,11.87
2022-11-02T03:32:09.152Z,11.95
2022-11-02T03:34:57.939Z,11.94
2022-11-02T03:37:49.695Z,11.86
2022-11-02T03:40:40.666Z,11.80
2022-11-02T03:43:26.502Z,11.76
2022-11-02T03:46:12.493Z,11.86
2022-11-02T03:48:57.497Z,11.75
2022-11-02T03:51:45.071Z,11.78
2022-11-02T03:54:41.832Z,11.83
2022-11-02T04:01:11.108Z,11.75
2022-11-02T04:03:56.739Z,11.66
2022-11-02T04:06:42.828Z,11.53
2022-11-02T04:09:28.224Z,11.53
2022-11-02T04:12:13.602Z,11.52
2022-11-02T04:14:58.920Z,11.60
2022-11-02T04:17:44.460Z,11.50
2022-11-02T04:20:29.412Z,11.55
2022-11-02T04:23:14.915Z,11.60
2022-11-02T04:26:00.179Z,11.62
2022-11-02T04:28:45.476Z,11.59
2022-11-02T04:31:31.234Z,11.54
2022-11-02T04:34:16.723Z,11.59
2022-11-02T04:37:01.968Z,11.63
2022-11-02T04:39:47.001Z,11.59
2022-11-02T04:42:32.130Z,11.63
2022-11-02T04:45:17.444Z,11.62
2022-11-02T04:48:20.730Z,11.73
2022-11-02T04:51:05.977Z,11.72
2022-11-02T04:53:53.406Z,11.79
2022-11-02T04:56:38.640Z,11.82
2022-11-02T04:59:23.993Z,11.83
2022-11-02T05:02:09.238Z,11.86
2022-11-02T05:04:54.529Z,11.94
2022-11-02T05:07:40.161Z,12.01
2022-11-02T05:10:25.395Z,12.00
2022-11-02T05:13:10.844Z,11.95
2022-11-02T05:15:57.241Z,12.00
2022-11-02T05:18:43.064Z,11.95
2022-11-02T05:21:28.212Z,12.03
2022-11-02T05:24:13.138Z,12.09
2022-11-02T05:26:58.633Z,12.05
2022-11-02T05:29:43.901Z,12.04
2022-11-02T05:33:00.927Z,12.01
2022-11-02T05:39:12.051Z,11.80
2022-11-02T05:41:57.505Z,11.76
2022-11-02T05:44:42.937Z,11.65
2022-11-02T05:47:28.148Z,11.66
2022-11-02T05:50:13.754Z,11.71
2022-11-02T05:52:59.029Z,11.71
2022-11-02T05:55:43.849Z,11.74
2022-11-02T05:58:28.985Z,11.70
2022-11-02T06:01:14.402Z,11.68
2022-11-02T06:03:59.827Z,11.75
2022-11-02T06:06:45.260Z,11.63
2022-11-02T06:09:30.246Z,11.81
2022-11-02T06:12:15.626Z,11.84
2022-11-02T06:15:00.641Z,11.81
2022-11-02T06:17:46.011Z,11.82
2022-11-02T06:20:31.041Z,11.95
2022-11-02T06:23:16.391Z,11.94
2022-11-02T06:26:02.229Z,11.97
2022-11-02T06:28:47.066Z,12.05
2022-11-02T06:31:31.941Z,12.15
2022-11-02T06:34:17.334Z,12.16
2022-11-02T06:37:02.506Z,12.11
2022-11-02T06:39:48.119Z,12.11
2022-11-02T06:42:36.983Z,12.14
2022-11-02T06:45:30.014Z,12.20
2022-11-02T06:48:15.501Z,12.22
2022-11-02T06:54:37.476Z,12.17
2022-11-02T06:57:22.863Z,12.24
2022-11-02T07:00:15.555Z,12.24
2022-11-02T07:03:06.157Z,12.18
2022-11-02T07:05:52.539Z,12.20
2022-11-02T07:08:37.955Z,12.27
2022-11-02T07:11:22.864Z,12.30
2022-11-02T07:14:08.059Z,12.29
2022-11-02T07:16:53.250Z,12.25
2022-11-02T07:19:38.087Z,12.27
2022-11-02T07:22:23.158Z,12.22
2022-11-02T07:25:08.745Z,12.25
2022-11-02T07:27:59.039Z,12.28
2022-11-02T07:30:44.388Z,12.25
2022-11-02T07:33:29.556Z,12.27
2022-11-02T07:36:14.522Z,12.24
2022-11-02T07:39:00.625Z,12.29
2022-11-02T07:41:50.815Z,12.30
2022-11-02T07:44:37.409Z,12.35
2022-11-02T07:47:22.415Z,12.40
2022-11-02T07:50:07.647Z,12.47
2022-11-02T07:52:55.228Z,12.50
2022-11-02T07:55:40.451Z,12.41
2022-11-02T07:58:26.057Z,12.42
2022-11-02T08:01:11.331Z,12.60
2022-11-02T08:03:57.770Z,12.62
2022-11-02T08:06:43.205Z,12.60
2022-11-02T08:09:28.536Z,12.55
2022-11-02T08:12:13.557Z,12.60
2022-11-02T08:15:01.239Z,12.66
2022-11-02T08:18:14.195Z,12.64
2022-11-02T08:20:59.582Z,12.57
2022-11-02T08:23:44.572Z,12.55
2022-11-02T08:26:29.661Z,12.53
2022-11-02T08:29:14.688Z,12.50
2022-11-02T08:31:59.564Z,12.49
2022-11-02T08:34:44.609Z,12.49
2022-11-02T08:37:30.067Z,12.49
2022-11-02T08:40:15.429Z,12.47
2022-11-02T08:43:02.595Z,12.53
2022-11-02T08:46:13.730Z,12.47
2022-11-02T08:48:53.542Z,12.44
2022-11-02T08:51:38.326Z,12.51
2022-11-02T08:54:23.687Z,12.64
2022-11-02T08:57:08.543Z,12.57
2022-11-02T08:59:53.608Z,12.57
2022-11-02T09:02:38.899Z,12.66
2022-11-02T09:05:24.305Z,12.62
2022-11-02T09:08:17.376Z,12.75
2022-11-02T09:11:03.583Z,12.73
2022-11-02T09:13:52.813Z,12.79
2022-11-02T09:16:45.324Z,12.81
2022-11-02T09:19:30.674Z,12.89
2022-11-02T09:22:16.069Z,12.90
2022-11-02T09:25:01.501Z,12.89
2022-11-02T09:27:50.401Z,12.98
2022-11-02T09:30:37.994Z,13.02
2022-11-02T09:33:23.411Z,13.10
2022-11-02T09:36:08.552Z,13.11
2022-11-02T09:38:53.412Z,12.99
2022-11-02T09:41:56.816Z,12.86
2022-11-02T09:44:56.888Z,12.92
2022-11-02T09:51:37.925Z,13.04
2022-11-02T09:54:32.633Z,12.87
2022-11-02T09:57:27.496Z,12.68
2022-11-02T10:00:14.389Z,12.81
2022-11-02T10:03:16.330Z,12.99
2022-11-02T10:06:12.264Z,13.17
2022-11-02T10:09:09.311Z,13.14
2022-11-02T10:12:23.211Z,12.92
2022-11-02T10:15:18.542Z,12.95
2022-11-02T10:18:04.999Z,12.82
2022-11-02T10:20:54.034Z,12.96
2022-11-02T10:23:49.816Z,12.89
2022-11-02T10:26:37.439Z,12.65
2022-11-02T10:29:45.010Z,12.58
2022-11-02T10:32:36.461Z,12.52
2022-11-02T10:35:45.762Z,12.43
2022-11-02T10:38:45.525Z,12.42
2022-11-02T10:41:40.085Z,12.51
2022-11-02T10:44:56.412Z,12.41
2022-11-02T10:47:53.522Z,12.88
2022-11-02T10:51:07.355Z,13.12
2022-11-02T10:53:53.319Z,13.36
2022-11-02T10:56:39.610Z,13.59
2022-11-02T10:59:24.563Z,13.28
2022-11-02T11:02:14.620Z,13.09
2022-11-02T11:05:13.672Z,13.51
2022-11-02T11:08:00.568Z,13.31
2022-11-02T11:10:45.861Z,13.47
2022-11-02T11:16:39.762Z,13.90
2022-11-02T11:19:40.603Z,13.58
2022-11-02T11:22:29.441Z,13.55
2022-11-02T11:25:27.629Z,13.30
2022-11-02T11:28:31.311Z,13.42
2022-11-02T11:31:17.830Z,13.56
2022-11-02T11:34:03.042Z,13.65
2022-11-02T11:36:48.493Z,13.74
2022-11-02T11:39:44.950Z,13.89
2022-11-02T11:42:35.459Z,13.82
2022-11-02T11:45:22.562Z,13.94
2022-11-02T11:48:27.134Z,13.72
2022-11-02T11:51:31.057Z,13.93
2022-11-02T11:54:30.588Z,13.72
2022-11-02T11:57:31.141Z,13.63
2022-11-02T12:00:28.215Z,13.51
2022-11-02T12:03:14.008Z,13.38
2022-11-02T12:06:28.581Z,13.20
2022-11-02T12:09:30.593Z,13.18
2022-11-02T12:12:29.004Z,13.38
2022-11-02T12:15:22.688Z,13.73
2022-11-02T12:18:22.999Z,13.99
2022-11-02T12:21:20.780Z,14.42
2022-11-02T12:24:08.761Z,14.49
2022-11-02T12:27:04.265Z,14.41
2022-11-02T12:29:59.988Z,14.35
2022-11-02T12:33:07.337Z,14.35
2022-11-02T12:36:16.157Z,14.31
2022-11-02T12:39:07.320Z,14.36
2022-11-02T12:42:00.293Z,14.14
2022-11-02T12:45:04.321Z,14.13
2022-11-02T12:48:05.137Z,14.26
2022-11-02T12:50:57.367Z,14.14
2022-11-02T12:53:48.624Z,14.13
2022-11-02T12:56:51.638Z,14.24
2022-11-02T12:59:40.453Z,14.76
2022-11-02T13:02:51.458Z,14.83
2022-11-02T13:05:46.951Z,14.95
2022-11-02T13:09:24.188Z,14.85
2022-11-02T13:12:35.488Z,15.72
2022-11-02T13:15:45.938Z,15.46
2022-11-02T13:18:54.995Z,14.94
2022-11-02T13:25:22.963Z,14.83
2022-11-02T13:28:28.868Z,14.62
2022-11-02T13:31:28.211Z,14.55
2022-11-02T13:34:29.171Z,14.15
2022-11-02T13:37:31.172Z,14.48
2022-11-02T13:40:32.053Z,14.28
2022-11-02T13:43:50.352Z,14.42
2022-11-02T13:47:50.142Z,14.02
2022-11-02T13:50:42.624Z,14.13
2022-11-02T13:53:33.668Z,14.22
2022-11-02T14:00:23.373Z,14.59
2022-11-02T14:03:33.562Z,14.22
2022-11-02T14:06:20.645Z,14.18
2022-11-02T14:09:08.902Z,14.11
2022-11-02T14:12:13.455Z,14.05
2022-11-02T14:15:14.163Z,14.01
2022-11-02T14:18:15.000Z,14.34
2022-11-02T14:21:45.743Z,14.24
2022-11-02T14:24:33.754Z,14.01
2022-11-02T14:27:19.237Z,13.98
2022-11-02T14:30:05.000Z,14.01
2022-11-02T14:33:05.327Z,14.16
2022-11-02T14:36:00.196Z,14.03
2022-11-02T14:39:07.048Z,14.23
2022-11-02T14:44:55.409Z,13.97
2022-11-02T14:47:40.615Z,14.04
2022-11-02T14:50:25.793Z,14.35
2022-11-02T14:53:26.092Z,14.08
2022-11-02T14:56:11.178Z,13.92
2022-11-02T14:58:59.193Z,13.95
2022-11-02T15:02:27.524Z,13.81
2022-11-02T15:05:48.156Z,13.63
2022-11-02T15:08:37.974Z,13.48
2022-11-02T15:11:42.452Z,13.41
2022-11-02T15:14:37.048Z,13.46
2022-11-02T15:17:22.891Z,13.32
2022-11-02T15:20:14.325Z,13.29
2022-11-02T15:23:30.368Z,13.17
2022-11-02T15:26:22.974Z,13.04
2022-11-02T15:29:16.322Z,12.94
2022-11-02T15:32:03.891Z,12.85
2022-11-02T15:34:51.535Z,12.76
2022-11-02T15:37:56.538Z,12.73
2022-11-02T15:40:51.362Z,12.72
2022-11-02T15:44:04.233Z,12.84
2022-11-02T15:47:32.580Z,12.82
2022-11-02T15:50:44.802Z,12.76
2022-11-02T15:53:41.708Z,12.53
2022-11-02T15:56:43.844Z,12.43
2022-11-02T15:59:51.087Z,12.44
2022-11-02T16:02:45.671Z,12.38
2022-11-02T16:05:43.832Z,12.35
2022-11-02T16:08:34.196Z,12.38
2022-11-02T16:11:19.928Z,12.33
2022-11-02T16:14:18.482Z,12.35
2022-11-02T16:17:04.252Z,12.30
2022-11-02T16:19:49.787Z,12.15
2022-11-02T16:22:35.578Z,12.09
2022-11-02T16:25:39.619Z,12.06
2022-11-02T16:28:27.443Z,12.07
2022-11-02T16:31:18.494Z,11.95
2022-11-02T16:34:19.671Z,11.89
2022-11-02T16:37:10.373Z,11.86
2022-11-02T16:39:55.840Z,11.88
2022-11-02T16:42:43.209Z,11.75
2022-11-02T16:45:35.883Z,11.71
2022-11-02T16:48:27.480Z,11.62
2022-11-02T16:51:14.825Z,11.62
2022-11-02T16:54:33.260Z,11.62
2022-11-02T16:57:22.224Z,11.60
2022-11-02T17:00:34.221Z,11.53
2022-11-02T17:03:41.529Z,11.17
2022-11-02T17:06:27.018Z,11.16
2022-11-02T17:09:28.609Z,11.15
2022-11-02T17:12:16.236Z,11.14
2022-11-02T17:15:10.855Z,11.09
2022-11-02T17:18:08.708Z,11.08
2022-11-02T17:21:14.245Z,11.08
2022-11-02T17:24:00.130Z,11.09
2022-11-02T17:26:45.753Z,11.06
2022-11-02T17:29:31.199Z,11.02
2022-11-02T17:32:17.616Z,10.96
2022-11-02T17:35:03.539Z,10.89
2022-11-02T17:37:49.573Z,10.73
2022-11-02T17:40:34.785Z,10.76
2022-11-02T17:43:21.281Z,10.85
2022-11-02T17:46:08.411Z,10.60
2022-11-02T17:48:53.881Z,10.71
2022-11-02T17:51:39.594Z,10.63
2022-11-02T17:54:25.164Z,10.52
2022-11-02T17:57:14.510Z,10.39
2022-11-02T17:59:59.806Z,10.27
2022-11-02T18:02:49.739Z,10.29
2022-11-02T18:05:37.301Z,10.20
2022-11-02T18:08:23.099Z,9.98
2022-11-02T18:11:08.992Z,9.81
2022-11-02T18:13:54.585Z,9.76
2022-11-02T18:16:40.047Z,9.78
2022-11-02T18:19:25.669Z,9.78
2022-11-02T18:22:12.213Z,9.72
2022-11-02T18:24:57.333Z,9.63
2022-11-02T18:28:01.131Z,9.64
2022-11-02T18:30:46.164Z,9.58
2022-11-02T18:33:31.126Z,9.51
2022-11-02T18:36:19.266Z,9.43
2022-11-02T18:39:04.371Z,9.42
2022-11-02T18:41:49.402Z,9.45
2022-11-02T18:44:34.682Z,9.43
2022-11-02T18:47:20.043Z,9.48
2022-11-02T18:50:07.085Z,9.43
2022-11-02T18:52:52.223Z,9.33
2022-11-02T18:55:38.473Z,9.32
2022-11-02T18:58:23.570Z,9.27
2022-11-02T19:01:10.458Z,9.35
2022-11-02T19:03:58.122Z,9.42
2022-11-02T19:06:43.177Z,9.38
2022-11-02T19:09:28.556Z,9.35
2022-11-02T19:12:19.477Z,9.28
2022-11-02T19:15:06.089Z,9.24
2022-11-02T19:17:51.414Z,9.22
2022-11-02T19:20:36.500Z,9.23
2022-11-02T19:23:21.447Z,9.24
2022-11-02T19:26:06.372Z,9.17
2022-11-02T19:28:51.640Z,9.22
2022-11-02T19:31:36.876Z,9.20
2022-11-02T19:34:22.487Z,9.25
2022-11-02T19:37:07.940Z,9.31
2022-11-02T19:39:52.922Z,9.26
2022-11-02T19:42:37.859Z,9.19
2022-11-02T19:45:23.102Z,9.17
2022-11-02T19:48:08.393Z,9.14
2022-11-02T19:50:53.662Z,9.12
2022-11-02T19:53:40.364Z,9.10
2022-11-02T19:56:27.149Z,9.10
2022-11-02T19:59:12.474Z,9.05
2022-11-02T20:01:57.970Z,8.92
2022-11-02T20:04:45.013Z,8.85
2022-11-02T20:07:30.261Z,8.88
2022-11-02T20:10:15.675Z,8.81
2022-11-02T20:13:00.924Z,8.78
2022-11-02T20:15:45.957Z,8.73
2022-11-02T20:18:31.213Z,8.73
2022-11-02T20:21:19.284Z,8.69
2022-11-02T20:24:04.957Z,8.66
2022-11-02T20:26:49.729Z,8.62
2022-11-02T20:29:34.911Z,8.59
2022-11-02T20:32:20.119Z,8.53
2022-11-02T20:35:09.669Z,8.47
2022-11-02T20:37:57.414Z,8.49
2022-11-02T20:40:42.416Z,8.55
2022-11-02T20:43:27.407Z,8.52
2022-11-02T20:49:29.300Z,8.41
2022-11-02T20:52:21.329Z,8.45
2022-11-02T20:55:07.123Z,8.44
2022-11-02T20:57:52.392Z,8.39
2022-11-02T21:00:37.644Z,8.43
2022-11-02T21:03:23.490Z,8.41
2022-11-02T21:06:08.920Z,8.40
2022-11-02T21:08:54.158Z,8.42
2022-11-02T21:11:39.215Z,8.44
2022-11-02T21:14:24.603Z,8.51
2022-11-02T21:17:09.792Z,8.49
2022-11-02T21:19:58.258Z,8.49
2022-11-02T21:22:50.187Z,8.55
2022-11-02T21:25:35.589Z,8.58
2022-11-02T21:28:20.665Z,8.60
2022-11-02T21:31:07.966Z,8.63
2022-11-02T21:33:53.227Z,8.65
2022-11-02T21:36:38.257Z,8.67
2022-11-02T21:39:23.655Z,8.73
2022-11-02T21:42:08.782Z,8.73
2022-11-02T21:44:53.942Z,8.77
2022-11-02T21:47:39.419Z,8.78
2022-11-02T21:50:24.363Z,8.82
2022-11-02T21:53:09.911Z,8.86
2022-11-02T21:55:59.739Z,8.84
2022-11-02T21:58:46.465Z,8.87
2022-11-02T22:01:33.096Z,8.92
2022-11-02T22:04:19.315Z,8.94
2022-11-02T22:07:04.965Z,8.93
2022-11-02T22:09:50.232Z,8.95
2022-11-02T22:12:35.746Z,8.98
2022-11-02T22:15:21.120Z,9.01
2022-11-02T22:18:06.078Z,9.09
2022-11-02T22:20:55.242Z,9.07
2022-11-02T22:23:41.570Z,9.07
2022-11-02T22:26:28.568Z,9.11
2022-11-02T22:29:13.546Z,9.12
2022-11-02T22:31:58.951Z,9.15
2022-11-02T22:34:44.092Z,9.17
2022-11-02T22:37:28.916Z,9.15
2022-11-02T22:40:13.820Z,9.14
2022-11-02T22:42:59.060Z,9.10
2022-11-02T22:45:45.443Z,9.12
2022-11-02T22:48:31.087Z,9.14
2022-11-02T22:51:16.706Z,9.13
2022-11-02T22:54:04.493Z,9.13
2022-11-02T22:56:49.504Z,9.10
2022-11-02T22:59:34.384Z,9.11
2022-11-02T23:02:19.749Z,9.07
2022-11-02T23:05:05.531Z,9.07
2022-11-02T23:07:50.447Z,9.09
2022-11-02T23:10:39.215Z,9.03
2022-11-02T23:13:24.696Z,9.11
2022-11-02T23:16:11.978Z,9.03
2022-11-02T23:19:03.322Z,8.98
2022-11-02T23:21:51.277Z,9.01
2022-11-02T23:24:43.603Z,8.96
2022-11-02T23:27:30.067Z,8.93
2022-11-02T23:30:15.524Z,8.91
2022-11-02T23:33:00.864Z,8.91
2022-11-02T23:35:46.198Z,8.92
2022-11-02T23:38:31.299Z,8.88
2022-11-02T23:41:17.952Z,8.87
2022-11-02T23:44:02.926Z,8.86
2022-11-02T23:46:48.309Z,8.86
2022-11-02T23:49:33.392Z,8.85
2022-11-02T23:52:18.569Z,8.85
2022-11-02T23:55:03.966Z,8.87
2022-11-02T23:57:49.139Z,8.88
